createdAt,value
2018-10-01T00:00:55.256Z,9.85
2018-10-01T00:03:23.627Z,10.25
2018-10-01T00:05:51.909Z,10.00
2018-10-01T00:08:20.242Z,10.08
2018-10-01T00:10:48.575Z,10.30
2018-10-01T00:13:16.909Z,9.58
2018-10-01T00:15:45.270Z,10.28
2018-10-01T00:18:13.583Z,11.00
2018-10-01T00:20:47.020Z,9.67
2018-10-01T00:23:15.395Z,9.60
2018-10-01T00:25:43.708Z,9.85
2018-10-01T00:28:12.111Z,9.50
2018-10-01T00:30:40.460Z,10.10
2018-10-01T00:33:08.796Z,9.85
2018-10-01T00:35:37.317Z,10.00
2018-10-01T00:38:05.611Z,9.60
2018-10-01T00:40:33.940Z,9.55
2018-10-01T00:43:02.246Z,9.50
2018-10-01T00:45:30.584Z,9.70
2018-10-01T00:47:58.847Z,8.80
2018-10-01T00:50:27.149Z,9.10
2018-10-01T00:52:55.441Z,8.30
2018-10-01T00:55:23.780Z,7.83
2018-10-01T00:57:52.317Z,8.00
2018-10-01T01:00:20.600Z,7.20
2018-10-01T01:02:48.956Z,7.87
2018-10-01T01:05:17.256Z,7.77
2018-10-01T01:07:45.883Z,7.10
2018-10-01T01:10:14.216Z,7.67
2018-10-01T01:12:42.631Z,6.75
2018-10-01T01:15:10.965Z,6.90
2018-10-01T01:17:39.295Z,6.80
2018-10-01T01:20:07.729Z,7.30
2018-10-01T01:22:36.057Z,7.08
2018-10-01T01:25:04.383Z,7.58
2018-10-01T01:27:32.721Z,6.65
2018-10-01T01:30:01.045Z,6.40
2018-10-01T01:32:29.357Z,6.50
2018-10-01T01:34:57.790Z,6.50
2018-10-01T01:37:26.115Z,6.78
2018-10-01T01:39:54.485Z,6.95
2018-10-01T01:42:22.808Z,6.55
2018-10-01T01:44:51.244Z,6.80
2018-10-01T01:47:19.561Z,7.00
2018-10-01T01:49:47.867Z,7.40
2018-10-01T01:52:16.169Z,6.90
2018-10-01T01:54:44.503Z,7.00
2018-10-01T01:57:12.853Z,6.50
2018-10-01T01:59:41.231Z,6.95
2018-10-01T02:02:09.583Z,6.58
2018-10-01T02:04:37.900Z,6.90
2018-10-01T02:07:06.304Z,7.40
2018-10-01T02:09:34.647Z,7.10
2018-10-01T02:12:02.976Z,6.47
2018-10-01T02:14:31.265Z,7.30
2018-10-01T02:16:59.617Z,7.30
2018-10-01T02:19:27.955Z,7.10
2018-10-01T02:21:56.376Z,7.17
2018-10-01T02:24:24.691Z,6.55
2018-10-01T02:26:53.016Z,6.40
2018-10-01T02:29:21.353Z,6.75
2018-10-01T02:31:49.694Z,6.40
2018-10-01T02:34:18.009Z,6.17
2018-10-01T02:36:46.351Z,5.80
2018-10-01T02:39:14.783Z,6.00
2018-10-01T02:41:43.148Z,6.42
2018-10-01T02:44:11.464Z,6.30
2018-10-01T02:46:39.805Z,6.10
2018-10-01T02:49:08.116Z,5.85
2018-10-01T02:51:41.816Z,5.87
2018-10-01T02:54:15.427Z,6.12
2018-10-01T02:56:43.743Z,5.35
2018-10-01T02:59:12.069Z,5.60
2018-10-01T03:01:40.406Z,5.67
2018-10-01T03:04:08.735Z,5.28
2018-10-01T03:06:37.055Z,5.58
2018-10-01T03:09:10.154Z,5.90
2018-10-01T03:11:38.458Z,5.65
2018-10-01T03:14:06.763Z,5.30
2018-10-01T03:16:35.102Z,5.03
2018-10-01T03:19:03.406Z,4.80
2018-10-01T03:21:31.716Z,4.67
2018-10-01T03:24:00.042Z,5.72
2018-10-01T03:26:28.356Z,5.12
2018-10-01T03:28:56.733Z,5.53
2018-10-01T03:31:25.098Z,4.90
2018-10-01T03:33:53.464Z,5.40
2018-10-01T03:36:21.772Z,5.00
2018-10-01T03:38:50.105Z,5.70
2018-10-01T03:41:18.425Z,5.72
2018-10-01T03:43:46.829Z,5.37
2018-10-01T03:46:15.133Z,6.03
2018-10-01T03:48:43.472Z,5.40
2018-10-01T03:51:11.950Z,5.40
2018-10-01T03:53:40.263Z,6.33
2018-10-01T03:56:08.684Z,5.70
2018-10-01T03:58:37.064Z,5.53
2018-10-01T04:01:05.403Z,5.50
2018-10-01T04:03:33.732Z,5.67
2018-10-01T04:06:02.323Z,5.72
2018-10-01T04:08:30.641Z,5.40
2018-10-01T04:10:58.959Z,5.65
2018-10-01T04:13:27.266Z,5.87
2018-10-01T04:15:55.594Z,5.60
2018-10-01T04:18:23.945Z,6.17
2018-10-01T04:20:52.235Z,6.20
2018-10-01T04:23:20.546Z,5.75
2018-10-01T04:25:48.836Z,5.70
2018-10-01T04:28:17.210Z,6.20
2018-10-01T04:30:45.514Z,5.85
2018-10-01T04:33:13.852Z,5.80
2018-10-01T04:35:42.207Z,6.12
2018-10-01T04:38:10.528Z,5.80
2018-10-01T04:40:38.848Z,5.67
2018-10-01T04:43:07.147Z,5.45
2018-10-01T04:45:35.487Z,4.83
2018-10-01T04:48:03.869Z,5.33
2018-10-01T04:50:32.209Z,5.05
2018-10-01T04:53:00.552Z,5.47
2018-10-01T04:55:28.956Z,4.80
2018-10-01T04:57:57.471Z,4.92
2018-10-01T05:00:25.716Z,4.70
2018-10-01T05:02:54.271Z,5.33
2018-10-01T05:05:22.685Z,5.30
2018-10-01T05:07:51.011Z,5.20
2018-10-01T05:10:19.360Z,5.40
2018-10-01T05:12:47.685Z,5.60
2018-10-01T05:15:16.059Z,5.47
2018-10-01T05:17:44.404Z,5.22
2018-10-01T05:20:12.777Z,6.50
2018-10-01T05:22:41.116Z,5.60
2018-10-01T05:25:09.408Z,4.60
2018-10-01T05:27:37.733Z,5.35
2018-10-01T05:30:06.046Z,3.77
2018-10-01T05:32:34.380Z,4.40
2018-10-01T05:35:02.696Z,4.12
2018-10-01T05:37:31.060Z,3.98
2018-10-01T05:39:59.368Z,4.28
2018-10-01T05:42:27.682Z,3.92
2018-10-01T05:44:56.001Z,4.53
2018-10-01T05:47:24.311Z,3.90
2018-10-01T05:49:52.640Z,4.70
2018-10-01T05:52:20.932Z,4.00
2018-10-01T05:54:49.245Z,4.50
2018-10-01T05:57:17.541Z,4.50
2018-10-01T05:59:45.865Z,4.60
2018-10-01T06:02:14.223Z,3.87
2018-10-01T06:04:42.553Z,3.77
2018-10-01T06:07:10.847Z,4.03
2018-10-01T06:09:39.160Z,3.70
2018-10-01T06:12:07.698Z,4.37
2018-10-01T06:14:36.010Z,4.15
2018-10-01T06:17:04.305Z,4.40
2018-10-01T06:19:32.691Z,4.10
2018-10-01T06:22:01.006Z,4.10
2018-10-01T06:24:29.363Z,4.15
2018-10-01T06:26:57.696Z,3.90
2018-10-01T06:29:26.023Z,4.42
2018-10-01T06:31:54.324Z,4.20
2018-10-01T06:34:22.601Z,4.62
2018-10-01T06:36:50.934Z,3.92
2018-10-01T06:39:19.242Z,4.30
2018-10-01T06:41:47.651Z,4.20
2018-10-01T06:44:15.924Z,4.20
2018-10-01T06:46:44.215Z,4.22
2018-10-01T06:49:12.536Z,3.90
2018-10-01T06:51:40.879Z,4.07
2018-10-01T06:54:09.260Z,3.80
2018-10-01T06:56:37.573Z,3.75
2018-10-01T06:59:06.008Z,4.78
2018-10-01T07:01:34.406Z,4.40
2018-10-01T07:04:02.816Z,4.20
2018-10-01T07:06:31.151Z,3.55
2018-10-01T07:08:59.715Z,3.08
2018-10-01T07:11:28.151Z,3.27
2018-10-01T07:13:56.385Z,2.90
2018-10-01T07:16:24.731Z,3.30
2018-10-01T07:18:53.164Z,3.75
2018-10-01T07:21:21.573Z,2.75
2018-10-01T07:23:49.877Z,2.80
2018-10-01T07:26:18.245Z,2.65
2018-10-01T07:28:46.567Z,2.60
2018-10-01T07:31:14.960Z,3.60
2018-10-01T07:33:43.337Z,2.40
2018-10-01T07:36:11.681Z,2.37
2018-10-01T07:38:39.988Z,2.70
2018-10-01T07:41:08.295Z,2.27
2018-10-01T07:43:36.581Z,2.40
2018-10-01T07:46:05.018Z,3.20
2018-10-01T07:48:33.263Z,3.45
2018-10-01T07:51:01.871Z,2.40
2018-10-01T07:53:30.098Z,2.47
2018-10-01T07:55:58.371Z,2.80
2018-10-01T07:58:27.067Z,2.08
2018-10-01T08:00:55.379Z,2.10
2018-10-01T08:03:24.065Z,2.00
2018-10-01T08:05:52.410Z,2.42
2018-10-01T08:08:20.847Z,2.30
2018-10-01T08:10:49.336Z,2.60
2018-10-01T08:13:17.672Z,1.77
2018-10-01T08:15:46.021Z,1.80
2018-10-01T08:18:14.808Z,2.20
2018-10-01T08:20:43.137Z,2.70
2018-10-01T08:23:11.485Z,1.80
2018-10-01T08:25:39.828Z,2.07
2018-10-01T08:28:08.306Z,1.67
2018-10-01T08:30:36.653Z,1.90
2018-10-01T08:33:04.962Z,1.80
2018-10-01T08:35:33.442Z,2.05
2018-10-01T08:38:01.942Z,2.10
2018-10-01T08:40:30.228Z,1.92
2018-10-01T08:42:58.585Z,2.00
2018-10-01T08:45:26.935Z,1.70
2018-10-01T08:47:55.324Z,1.82
2018-10-01T08:50:29.022Z,1.42
2018-10-01T08:53:08.503Z,1.92
2018-10-01T08:55:37.085Z,1.80
2018-10-01T08:58:05.409Z,1.80
2018-10-01T09:00:33.708Z,1.50
2018-10-01T09:03:02.068Z,1.30
2018-10-01T09:05:30.461Z,1.60
2018-10-01T09:07:58.747Z,1.50
2018-10-01T09:10:27.102Z,1.80
2018-10-01T09:12:55.419Z,1.60
2018-10-01T09:15:23.829Z,1.40
2018-10-01T09:17:52.269Z,1.80
2018-10-01T09:20:20.826Z,1.60
2018-10-01T09:22:49.178Z,1.70
2018-10-01T09:25:17.557Z,2.20
2018-10-01T09:27:45.916Z,1.50
2018-10-01T09:30:14.220Z,1.12
2018-10-01T09:32:42.608Z,1.50
2018-10-01T09:35:10.988Z,1.67
2018-10-01T09:37:39.448Z,1.43
2018-10-01T09:40:07.805Z,1.22
2018-10-01T09:42:36.113Z,1.60
2018-10-01T09:45:04.488Z,1.20
2018-10-01T09:47:32.827Z,1.00
2018-10-01T09:50:01.185Z,1.20
2018-10-01T09:52:29.529Z,1.32
2018-10-01T09:54:57.858Z,1.30
2018-10-01T09:57:26.216Z,1.30
2018-10-01T09:59:54.560Z,1.10
2018-10-01T10:02:22.907Z,1.30
2018-10-01T10:04:51.283Z,1.40
2018-10-01T10:07:19.737Z,1.40
2018-10-01T10:09:48.076Z,1.10
2018-10-01T10:12:16.416Z,1.50
2018-10-01T10:14:44.788Z,1.20
2018-10-01T10:17:13.182Z,1.20
2018-10-01T10:19:41.513Z,1.20
2018-10-01T10:22:09.819Z,0.90
2018-10-01T10:24:38.250Z,1.00
2018-10-01T10:27:06.588Z,1.00
2018-10-01T10:29:34.916Z,1.70
2018-10-01T10:32:03.322Z,0.85
2018-10-01T10:34:31.661Z,1.20
2018-10-01T10:36:59.895Z,1.20
2018-10-01T10:39:28.263Z,1.20
2018-10-01T10:41:56.609Z,1.80
2018-10-01T10:44:24.894Z,1.45
2018-10-01T10:46:53.243Z,1.20
2018-10-01T10:49:21.605Z,1.20
2018-10-01T10:51:49.934Z,1.20
2018-10-01T10:54:18.256Z,1.10
2018-10-01T10:56:46.650Z,1.87
2018-10-01T10:59:14.927Z,1.20
2018-10-01T11:01:43.266Z,1.70
2018-10-01T11:04:11.580Z,1.10
2018-10-01T11:06:39.868Z,1.00
2018-10-01T11:09:09.585Z,1.50
2018-10-01T11:11:37.977Z,1.00
2018-10-01T11:14:06.756Z,0.90
2018-10-01T11:16:35.038Z,1.00
2018-10-01T11:19:03.491Z,1.20
2018-10-01T11:21:31.748Z,0.87
2018-10-01T11:23:59.994Z,0.73
2018-10-01T11:26:28.320Z,1.20
2018-10-01T11:28:56.708Z,0.70
2018-10-01T11:31:24.978Z,1.62
2018-10-01T11:33:53.480Z,0.93
2018-10-01T11:36:21.839Z,1.00
2018-10-01T11:38:50.110Z,0.60
2018-10-01T11:41:18.448Z,1.00
2018-10-01T11:43:46.773Z,0.70
2018-10-01T11:46:15.099Z,0.90
2018-10-01T11:48:43.444Z,0.70
2018-10-01T11:51:11.825Z,1.00
2018-10-01T11:53:40.385Z,1.00
2018-10-01T11:56:08.728Z,0.90
2018-10-01T11:58:37.047Z,0.82
2018-10-01T12:01:05.439Z,1.02
2018-10-01T12:03:33.848Z,1.10
2018-10-01T12:06:02.133Z,1.27
2018-10-01T12:08:30.420Z,35.57
2018-10-01T12:10:58.768Z,7.03
2018-10-01T12:13:27.084Z,8.13
2018-10-01T12:15:55.534Z,4.22
2018-10-01T12:18:23.747Z,2.27
2018-10-01T12:20:52.106Z,1.30
2018-10-01T12:23:20.411Z,1.00
2018-10-01T12:25:48.755Z,1.50
2018-10-01T12:28:17.057Z,1.65
2018-10-01T12:30:45.468Z,1.70
2018-10-01T12:33:13.897Z,1.50
2018-10-01T12:35:42.175Z,1.20
2018-10-01T12:38:10.475Z,1.70
2018-10-01T12:40:38.783Z,1.40
2018-10-01T12:43:07.284Z,1.43
2018-10-01T12:45:35.649Z,1.00
2018-10-01T12:48:03.986Z,1.20
2018-10-01T12:50:33.015Z,1.10
2018-10-01T12:53:01.228Z,1.80
2018-10-01T12:55:29.740Z,1.70
2018-10-01T12:57:58.041Z,1.82
2018-10-01T13:00:26.357Z,2.02
2018-10-01T13:02:54.653Z,3.62
2018-10-01T13:05:22.957Z,3.00
2018-10-01T13:07:51.299Z,3.37
2018-10-01T13:10:19.622Z,2.80
2018-10-01T13:12:47.937Z,1.90
2018-10-01T13:15:16.305Z,1.72
2018-10-01T13:17:44.861Z,1.60
2018-10-01T13:20:14.140Z,1.80
2018-10-01T13:22:42.436Z,1.50
2018-10-01T13:25:10.744Z,1.60
2018-10-01T13:27:39.078Z,1.70
2018-10-01T13:30:07.508Z,1.40
2018-10-01T13:32:35.881Z,1.70
2018-10-01T13:35:05.028Z,1.32
2018-10-01T13:37:33.411Z,3.95
2018-10-01T13:40:01.788Z,1.00
2018-10-01T13:42:30.145Z,1.20
2018-10-01T13:44:58.424Z,1.07
2018-10-01T13:47:26.805Z,2.27
2018-10-01T13:49:55.361Z,2.20
2018-10-01T13:52:23.709Z,1.90
2018-10-01T13:54:52.026Z,1.30
2018-10-01T13:57:20.322Z,1.60
2018-10-01T13:59:48.703Z,1.42
2018-10-01T14:02:17.155Z,1.15
2018-10-01T14:04:45.492Z,1.47
2018-10-01T14:07:13.876Z,1.60
2018-10-01T14:09:42.187Z,1.60
2018-10-01T14:12:10.564Z,1.40
2018-10-01T14:14:38.886Z,1.50
2018-10-01T14:17:07.419Z,2.30
2018-10-01T14:19:35.777Z,1.90
2018-10-01T14:22:04.096Z,1.90
2018-10-01T14:24:32.404Z,2.20
2018-10-01T14:27:00.726Z,1.77
2018-10-01T14:29:29.057Z,1.90
2018-10-01T14:31:57.343Z,1.60
2018-10-01T14:34:25.680Z,1.37
2018-10-01T14:36:54.110Z,1.98
2018-10-01T14:39:23.132Z,2.00
2018-10-01T14:41:51.435Z,2.60
2018-10-01T14:44:19.750Z,2.20
2018-10-01T14:46:48.078Z,2.17
2018-10-01T14:49:17.197Z,2.25
2018-10-01T14:51:45.649Z,2.72
2018-10-01T14:54:14.099Z,1.80
2018-10-01T14:56:42.364Z,2.12
2018-10-01T14:59:10.651Z,2.63
2018-10-01T15:01:39.640Z,2.33
2018-10-01T15:04:07.999Z,1.50
2018-10-01T15:06:36.353Z,1.77
2018-10-01T15:09:06.631Z,1.72
2018-10-01T15:11:34.978Z,1.45
2018-10-01T15:14:03.396Z,1.10
2018-10-01T15:16:32.716Z,1.80
2018-10-01T15:19:01.021Z,1.20
2018-10-01T15:21:30.129Z,1.50
2018-10-01T15:23:58.569Z,1.60
2018-10-01T15:26:26.852Z,1.40
2018-10-01T15:28:55.305Z,1.80
2018-10-01T15:31:23.613Z,1.15
2018-10-01T15:33:51.916Z,1.05
2018-10-01T15:36:20.478Z,1.20
2018-10-01T15:38:48.811Z,1.20
2018-10-01T15:41:18.494Z,5.87
2018-10-01T15:43:46.800Z,2.08
2018-10-01T15:46:15.135Z,3.42
2018-10-01T15:48:43.439Z,4.60
2018-10-01T15:51:11.782Z,2.13
2018-10-01T15:53:40.052Z,1.70
2018-10-01T15:56:09.469Z,1.40
2018-10-01T15:58:39.710Z,1.80
2018-10-01T16:01:08.021Z,1.32
2018-10-01T16:03:36.363Z,1.30
2018-10-01T16:06:05.885Z,1.20
2018-10-01T16:08:35.377Z,1.00
2018-10-01T16:11:03.706Z,1.40
2018-10-01T16:13:32.144Z,1.30
2018-10-01T16:16:00.529Z,1.67
2018-10-01T16:18:28.821Z,1.85
2018-10-01T16:20:57.604Z,1.50
2018-10-01T16:23:26.310Z,1.72
2018-10-01T16:25:54.721Z,1.80
2018-10-01T16:28:23.029Z,1.82
2018-10-01T16:30:51.351Z,1.70
2018-10-01T16:33:19.669Z,1.40
2018-10-01T16:35:47.988Z,1.50
2018-10-01T16:38:16.541Z,1.80
2018-10-01T16:40:44.847Z,1.57
2018-10-01T16:43:13.559Z,1.30
2018-10-01T16:45:41.895Z,1.40
2018-10-01T16:48:10.193Z,1.30
2018-10-01T16:50:38.516Z,1.40
2018-10-01T16:53:08.637Z,1.20
2018-10-01T16:55:36.941Z,1.30
2018-10-01T16:58:05.280Z,1.55
2018-10-01T17:02:03.946Z,1.62
2018-10-01T17:04:32.492Z,1.40
2018-10-01T17:07:00.850Z,1.40
2018-10-01T17:09:35.624Z,1.12
2018-10-01T17:12:03.921Z,1.27
2018-10-01T17:14:32.272Z,1.30
2018-10-01T17:17:00.629Z,1.40
2018-10-01T17:19:28.978Z,1.40
2018-10-01T17:21:57.256Z,1.70
2018-10-01T17:24:25.587Z,1.40
2018-10-01T17:26:53.879Z,1.50
2018-10-01T17:29:22.207Z,1.70
2018-10-01T17:31:50.541Z,2.00
2018-10-01T17:34:18.919Z,1.98
2018-10-01T17:36:47.219Z,1.80
2018-10-01T17:39:15.540Z,1.60
2018-10-01T17:41:43.861Z,1.50
2018-10-01T17:44:12.165Z,1.50
2018-10-01T17:46:40.551Z,2.00
2018-10-01T17:49:08.876Z,1.50
2018-10-01T17:51:37.208Z,3.50
2018-10-01T17:54:05.590Z,3.80
2018-10-01T17:56:34.286Z,3.70
2018-10-01T17:59:02.601Z,3.55
2018-10-01T18:01:30.933Z,5.40
2018-10-01T18:04:00.328Z,4.60
2018-10-01T18:06:28.625Z,6.30
2018-10-01T18:08:56.969Z,4.80
2018-10-01T18:11:25.314Z,3.40
2018-10-01T18:13:53.642Z,3.17
2018-10-01T18:16:22.016Z,2.70
2018-10-01T18:18:50.304Z,2.10
2018-10-01T18:21:18.642Z,2.60
2018-10-01T18:23:47.018Z,2.40
2018-10-01T18:26:15.304Z,2.27
2018-10-01T18:28:43.711Z,2.00
2018-10-01T18:31:12.052Z,2.00
2018-10-01T18:33:40.368Z,2.00
2018-10-01T18:36:17.692Z,2.90
2018-10-01T18:38:46.001Z,2.63
2018-10-01T18:41:14.336Z,3.70
2018-10-01T18:43:42.763Z,3.77
2018-10-01T18:46:11.033Z,2.55
2018-10-01T18:48:39.397Z,2.70
2018-10-01T18:51:07.868Z,3.05
2018-10-01T18:53:36.186Z,2.25
2018-10-01T18:56:04.608Z,2.20
2018-10-01T18:58:32.920Z,2.08
2018-10-01T19:01:01.264Z,2.00
2018-10-01T19:03:29.671Z,2.52
2018-10-01T19:05:57.958Z,2.20
2018-10-01T19:08:26.373Z,1.90
2018-10-01T19:10:54.665Z,1.90
2018-10-01T19:13:22.976Z,2.10
2018-10-01T19:15:51.322Z,1.80
2018-10-01T19:18:19.681Z,2.12
2018-10-01T19:20:48.115Z,2.20
2018-10-01T19:23:16.425Z,2.50
2018-10-01T19:25:46.180Z,3.08
2018-10-01T19:28:14.498Z,2.60
2018-10-01T19:30:42.851Z,3.30
2018-10-01T19:33:11.180Z,2.70
2018-10-01T19:35:39.569Z,3.42
2018-10-01T19:38:07.916Z,3.00
2018-10-01T19:40:36.267Z,3.20
2018-10-01T19:43:05.187Z,3.75
2018-10-01T19:45:33.716Z,3.80
2018-10-01T19:48:02.023Z,2.70
2018-10-01T19:50:30.369Z,2.92
2018-10-01T19:52:58.718Z,2.40
2018-10-01T19:55:27.021Z,2.20
2018-10-01T19:57:55.368Z,2.60
2018-10-01T20:00:23.839Z,2.33
2018-10-01T20:02:52.164Z,2.25
2018-10-01T20:05:20.599Z,2.47
2018-10-01T20:07:48.859Z,2.90
2018-10-01T20:10:17.231Z,2.47
2018-10-01T20:12:45.566Z,2.52
2018-10-01T20:15:14.319Z,2.40
2018-10-01T20:17:42.650Z,2.40
2018-10-01T20:20:10.975Z,2.95
2018-10-01T20:22:39.316Z,2.87
2018-10-01T20:25:07.633Z,3.08
2018-10-01T20:27:36.041Z,3.20
2018-10-01T20:30:04.353Z,3.30
2018-10-01T20:32:32.680Z,2.98
2018-10-01T20:35:01.047Z,3.80
2018-10-01T20:37:29.322Z,3.58
2018-10-01T20:39:57.657Z,3.87
2018-10-01T20:42:26.061Z,4.03
2018-10-01T20:44:54.313Z,3.50
2018-10-01T20:47:22.726Z,3.22
2018-10-01T20:49:51.094Z,3.20
2018-10-01T20:52:19.444Z,3.37
2018-10-01T20:54:47.805Z,3.10
2018-10-01T20:57:16.194Z,3.20
2018-10-01T20:59:44.763Z,3.00
2018-10-01T21:02:13.116Z,2.85
2018-10-01T21:04:41.468Z,2.90
2018-10-01T21:07:09.928Z,2.60
2018-10-01T21:09:38.232Z,3.90
2018-10-01T21:12:06.930Z,3.22
2018-10-01T21:14:35.244Z,3.00
2018-10-01T21:17:03.600Z,2.83
2018-10-01T21:19:32.432Z,3.10
2018-10-01T21:22:00.746Z,3.30
2018-10-01T21:24:29.130Z,4.78
2018-10-01T21:26:57.480Z,6.03
2018-10-01T21:29:25.916Z,4.30
2018-10-01T21:31:54.216Z,4.10
2018-10-01T21:34:22.735Z,3.47
2018-10-01T21:36:52.229Z,3.20
2018-10-01T21:39:25.780Z,2.92
2018-10-01T21:41:54.107Z,3.17
2018-10-01T21:44:22.444Z,3.70
2018-10-01T21:46:50.739Z,3.87
2018-10-01T21:49:19.049Z,3.20
2018-10-01T21:51:48.088Z,3.50
2018-10-01T21:54:16.418Z,3.17
2018-10-01T21:56:45.101Z,4.40
2018-10-01T21:59:13.440Z,4.08
2018-10-01T22:01:41.822Z,3.70
2018-10-01T22:04:10.535Z,4.10
2018-10-01T22:06:39.014Z,3.90
2018-10-01T22:09:08.629Z,4.65
2018-10-01T22:11:36.965Z,3.90
2018-10-01T22:14:05.644Z,3.47
2018-10-01T22:16:34.460Z,4.00
2018-10-01T22:19:02.816Z,4.12
2018-10-01T22:21:31.157Z,3.85
2018-10-01T22:23:59.487Z,3.80
2018-10-01T22:26:27.997Z,3.60
2018-10-01T22:28:56.500Z,3.20
2018-10-01T22:31:24.825Z,3.17
2018-10-01T22:33:53.803Z,3.10
2018-10-01T22:36:22.110Z,2.90
2018-10-01T22:38:50.470Z,2.65
2018-10-01T22:41:19.853Z,3.42
2018-10-01T22:43:48.147Z,2.50
2018-10-01T22:46:16.502Z,2.90
2018-10-01T22:48:45.036Z,2.70
2018-10-01T22:51:13.363Z,3.10
2018-10-01T22:53:45.567Z,3.33
2018-10-01T22:56:13.894Z,2.90
2018-10-01T22:58:42.211Z,3.37
2018-10-01T23:01:10.629Z,3.60
2018-10-01T23:03:38.968Z,3.60
2018-10-01T23:06:07.619Z,2.95
2018-10-01T23:08:35.987Z,3.15
2018-10-01T23:11:04.331Z,2.90
2018-10-01T23:13:32.783Z,4.10
2018-10-01T23:16:01.106Z,2.80
2018-10-01T23:18:29.417Z,3.10
2018-10-01T23:20:57.971Z,3.25
2018-10-01T23:23:26.362Z,3.62
2018-10-01T23:25:55.089Z,3.37
2018-10-01T23:28:23.412Z,3.20
2018-10-01T23:30:51.930Z,3.27
2018-10-01T23:33:20.247Z,4.05
2018-10-01T23:35:48.555Z,3.60
2018-10-01T23:38:16.962Z,4.20
2018-10-01T23:40:45.251Z,3.90
2018-10-01T23:43:13.899Z,3.80
2018-10-01T23:45:42.349Z,3.90
2018-10-01T23:48:10.703Z,3.90
2018-10-01T23:50:38.995Z,4.85
2018-10-01T23:53:07.355Z,4.37
2018-10-01T23:55:35.667Z,5.30
2018-10-01T23:58:04.131Z,4.47
